Startpagina
METAR-TAF:

METAR-TAF

Vliegvelden :

Lagos, Nigeria

Murtala Muhammed International Airport

breedte: 06-35N, lengte: 003-20E, hoogte: 40 m

METAR: ontbreekt

Tijdstip: 13:59 (12:59 UTC)

Verwachting

Dit bericht is 27 uur en het 4 minuten geleden gemaakt, om 09:55 UTC
Verwachting geldig van 21 om 12 UTC tot 22 om 18 UTC
Wind 5 kt uit het westzuidwesten
Zicht 10 km of meer
Gebroken wolken op 1400 ft
Weinig wolken op 2000 ft, Cumulonimbus.
Tijdelijke
van 21 om 13 UTC tot 21 om 19 UTC
Wind 10 kt uit het zuiden
onweer
Wijzigt naar
van 21 om 19 UTC tot 21 om 21 UTC
Weinig wolken op 1100 ft

TAF: DNMM 210955Z 2112/2218 24005KT 9999 BKN014 FEW020CB TEMPO 2113/2119 17010KT TS BECMG 2119/2121 FEW011

Waarnemingen en weersverwachtingen van meer dan 4000 vliegvelden (METAR en TAF).

De beschikbare stations zijn de gele en rode punten op de kaart.

Ga met uw muis naar het station om de naam te zien.

Klik dan om waarnemingen en weersverwachtingen te zien.

kaart wijzigen: klik op de groene knoppen met een zwart kruis om in te zoomen, op de groene knop met een streepje om uit te zoomen of op de groene pijlen voor aangrenzende kaarten.


METAR-TAF: